createdAt,value
2018-06-24T00:00:19.592Z,82.45
2018-06-24T00:02:01.895Z,82.70
2018-06-24T00:03:38.086Z,82.97
2018-06-24T00:05:16.196Z,82.56
2018-06-24T00:06:53.271Z,82.77
2018-06-24T00:08:29.174Z,82.43
2018-06-24T00:10:05.199Z,82.66
2018-06-24T00:11:56.576Z,82.90
2018-06-24T00:13:33.883Z,82.72
2018-06-24T00:15:10.059Z,82.82
2018-06-24T00:16:52.178Z,82.55
2018-06-24T00:18:28.365Z,82.70
2018-06-24T00:20:04.442Z,82.50
2018-06-24T00:21:41.329Z,82.59
2018-06-24T00:23:17.784Z,82.31
2018-06-24T00:24:52.975Z,82.09
2018-06-24T00:26:31.520Z,82.28
2018-06-24T00:28:14.873Z,82.49
2018-06-24T00:29:51.824Z,82.25
2018-06-24T00:31:27.666Z,82.25
2018-06-24T00:33:04.461Z,81.75
2018-06-24T00:34:41.638Z,82.10
2018-06-24T00:36:17.384Z,82.44
2018-06-24T00:37:54.296Z,82.11
2018-06-24T00:39:30.498Z,81.98
2018-06-24T00:41:06.044Z,82.24
2018-06-24T00:42:42.874Z,82.24
2018-06-24T00:44:18.007Z,82.20
2018-06-24T00:45:52.946Z,82.57
2018-06-24T00:47:31.400Z,82.01
2018-06-24T00:49:07.334Z,81.67
2018-06-24T00:50:46.397Z,81.45
2018-06-24T00:52:21.604Z,81.26
2018-06-24T00:53:59.731Z,80.94
2018-06-24T00:55:36.331Z,80.86
2018-06-24T00:57:11.927Z,81.25
2018-06-24T00:58:47.184Z,80.96
2018-06-24T01:00:21.910Z,81.19
2018-06-24T01:01:58.854Z,81.01
2018-06-24T01:03:33.823Z,81.10
2018-06-24T01:05:10.442Z,81.07
2018-06-24T01:06:47.194Z,81.12
2018-06-24T01:08:23.340Z,81.25
2018-06-24T01:09:59.967Z,80.76
2018-06-24T01:11:35.342Z,80.48
2018-06-24T01:13:11.462Z,80.63
2018-06-24T01:14:47.335Z,80.42
2018-06-24T01:16:26.683Z,80.15
2018-06-24T01:18:02.121Z,80.72
2018-06-24T01:19:38.630Z,80.32
2018-06-24T01:21:13.745Z,80.69
2018-06-24T01:22:49.854Z,79.95
2018-06-24T01:24:25.101Z,80.41
2018-06-24T01:25:59.966Z,80.06
2018-06-24T01:27:34.816Z,80.30
2018-06-24T01:29:12.126Z,80.61
2018-06-24T01:30:48.146Z,80.30
2018-06-24T01:32:25.319Z,80.41
2018-06-24T01:34:00.123Z,80.45
2018-06-24T01:35:36.265Z,80.39
2018-06-24T01:37:11.225Z,80.70
2018-06-24T01:38:47.777Z,80.19
2018-06-24T01:40:22.959Z,80.25
2018-06-24T01:41:57.871Z,80.11
2018-06-24T01:43:33.554Z,79.86
2018-06-24T01:45:09.669Z,79.81
2018-06-24T01:46:44.692Z,79.70
2018-06-24T01:48:20.788Z,79.80
2018-06-24T01:49:57.878Z,80.27
2018-06-24T01:51:34.323Z,80.28
2018-06-24T01:53:12.268Z,80.57
2018-06-24T01:54:47.393Z,80.75
2018-06-24T01:56:23.077Z,80.75
2018-06-24T01:58:00.719Z,80.80
2018-06-24T01:59:36.383Z,80.44
2018-06-24T02:01:11.623Z,80.80
2018-06-24T02:02:46.958Z,80.83
2018-06-24T02:04:23.588Z,80.91
2018-06-24T02:05:58.450Z,80.97
2018-06-24T02:07:33.516Z,81.00
2018-06-24T02:09:13.820Z,80.94
2018-06-24T02:10:49.236Z,80.91
2018-06-24T02:12:24.728Z,81.33
2018-06-24T02:13:59.614Z,81.06
2018-06-24T02:15:34.308Z,81.04
2018-06-24T02:17:10.473Z,81.01
2018-06-24T02:18:46.529Z,81.30
2018-06-24T02:20:23.241Z,81.61
2018-06-24T02:21:58.129Z,81.33
2018-06-24T02:23:33.342Z,81.00
2018-06-24T02:25:08.295Z,81.22
2018-06-24T02:26:43.562Z,81.47
2018-06-24T02:28:19.022Z,81.77
2018-06-24T02:29:53.910Z,81.93
2018-06-24T02:31:29.546Z,81.53
2018-06-24T02:33:04.891Z,81.60
2018-06-24T02:34:39.926Z,82.03
2018-06-24T02:36:14.979Z,81.83
2018-06-24T02:37:50.679Z,81.90
2018-06-24T02:39:25.336Z,81.95
2018-06-24T02:41:00.156Z,81.44
2018-06-24T02:42:35.740Z,81.54
2018-06-24T02:44:11.035Z,81.69
2018-06-24T02:45:45.712Z,81.94
2018-06-24T02:47:20.500Z,81.73
2018-06-24T02:48:56.064Z,81.75
2018-06-24T02:50:30.680Z,82.12
2018-06-24T02:52:05.614Z,82.26
2018-06-24T02:53:47.441Z,82.17
2018-06-24T02:55:22.725Z,82.38
2018-06-24T02:56:58.429Z,82.56
2018-06-24T02:58:38.139Z,82.48
2018-06-24T03:00:20.369Z,82.75
2018-06-24T03:01:56.288Z,82.25
2018-06-24T03:03:30.924Z,82.63
2018-06-24T03:05:05.645Z,82.59
2018-06-24T03:06:42.926Z,82.44
2018-06-24T03:08:19.246Z,82.51
2018-06-24T03:09:53.919Z,82.76
2018-06-24T03:11:29.022Z,82.71
2018-06-24T03:13:04.554Z,82.78
2018-06-24T03:14:39.336Z,82.22
2018-06-24T03:16:14.067Z,82.59
2018-06-24T03:17:49.338Z,82.49
2018-06-24T03:19:24.365Z,82.42
2018-06-24T03:20:59.039Z,82.69
2018-06-24T03:22:33.770Z,82.67
2018-06-24T03:24:08.491Z,82.87
2018-06-24T03:25:43.212Z,82.59
2018-06-24T03:27:18.223Z,82.50
2018-06-24T03:28:52.918Z,82.48
2018-06-24T03:30:27.643Z,82.40
2018-06-24T03:32:02.339Z,82.42
2018-06-24T03:33:40.980Z,82.79
2018-06-24T03:35:15.612Z,82.69
2018-06-24T03:36:50.331Z,82.78
2018-06-24T03:38:25.087Z,82.46
2018-06-24T03:39:59.835Z,82.13
2018-06-24T03:41:34.497Z,82.25
2018-06-24T03:43:09.345Z,82.28
2018-06-24T03:44:43.998Z,82.66
2018-06-24T03:46:18.931Z,82.44
2018-06-24T03:47:53.647Z,82.11
2018-06-24T03:49:28.765Z,82.01
2018-06-24T03:51:03.454Z,81.91
2018-06-24T03:52:38.266Z,81.78
2018-06-24T03:54:12.893Z,81.76
2018-06-24T03:55:47.559Z,81.73
2018-06-24T03:57:22.621Z,82.00
2018-06-24T03:58:57.242Z,81.76
2018-06-24T04:00:31.932Z,81.37
2018-06-24T04:02:07.079Z,81.64
2018-06-24T04:03:45.848Z,81.27
2018-06-24T04:05:21.216Z,81.18
2018-06-24T04:06:55.822Z,81.08
2018-06-24T04:08:30.530Z,81.23
2018-06-24T04:10:05.234Z,81.03
2018-06-24T04:11:41.335Z,81.42
2018-06-24T04:13:16.946Z,80.60
2018-06-24T04:14:51.569Z,81.05
2018-06-24T04:16:26.189Z,80.77
2018-06-24T04:18:00.904Z,80.16
2018-06-24T04:19:36.717Z,80.85
2018-06-24T04:21:13.818Z,80.08
2018-06-24T04:22:48.442Z,80.16
2018-06-24T04:24:23.133Z,79.90
2018-06-24T04:25:57.795Z,79.66
2018-06-24T04:27:32.875Z,79.67
2018-06-24T04:29:08.274Z,79.52
2018-06-24T04:30:42.964Z,79.40
2018-06-24T04:32:17.684Z,79.97
2018-06-24T04:33:52.578Z,80.05
2018-06-24T04:35:28.847Z,79.93
2018-06-24T04:37:03.547Z,79.52
2018-06-24T04:38:38.184Z,79.78
2018-06-24T04:40:12.952Z,78.84
2018-06-24T04:41:47.586Z,79.52
2018-06-24T04:43:23.224Z,79.16
2018-06-24T04:44:58.323Z,78.50
2018-06-24T04:46:34.463Z,78.13
2018-06-24T04:48:09.167Z,78.52
2018-06-24T04:49:43.876Z,78.68
2018-06-24T04:51:19.079Z,78.58
2018-06-24T04:52:53.742Z,78.73
2018-06-24T04:54:28.418Z,77.71
2018-06-24T04:56:03.893Z,77.76
2018-06-24T04:57:38.823Z,77.74
2018-06-24T04:59:13.582Z,76.74
2018-06-24T05:00:48.505Z,76.94
2018-06-24T05:02:24.982Z,76.08
2018-06-24T05:03:59.659Z,77.17
2018-06-24T05:05:34.586Z,75.96
2018-06-24T05:07:09.230Z,75.93
2018-06-24T05:08:43.984Z,75.60
2018-06-24T05:10:18.635Z,76.24
2018-06-24T05:11:53.339Z,75.84
2018-06-24T05:13:28.367Z,76.05
2018-06-24T05:15:04.709Z,75.81
2018-06-24T05:16:42.786Z,75.89
2018-06-24T05:18:17.420Z,75.49
2018-06-24T05:19:52.106Z,75.82
2018-06-24T05:21:27.071Z,74.44
2018-06-24T05:23:03.293Z,73.90
2018-06-24T05:24:37.960Z,73.41
2018-06-24T05:26:13.185Z,73.27
2018-06-24T05:27:47.792Z,73.56
2018-06-24T05:29:22.720Z,72.23
2018-06-24T05:30:57.436Z,72.80
2018-06-24T05:32:32.812Z,71.37
2018-06-24T05:34:08.046Z,72.35
2018-06-24T05:35:42.727Z,71.64
2018-06-24T05:37:17.812Z,70.67
2018-06-24T05:38:52.484Z,71.04
2018-06-24T05:40:27.139Z,69.61
2018-06-24T05:42:01.874Z,69.26
2018-06-24T05:43:36.571Z,69.35
2018-06-24T05:45:14.583Z,68.64
2018-06-24T05:46:49.259Z,68.10
2018-06-24T05:48:23.881Z,68.73
2018-06-24T05:49:58.838Z,63.41
2018-06-24T05:51:34.063Z,65.62
2018-06-24T05:53:09.172Z,64.07
2018-06-24T05:54:44.094Z,63.52
2018-06-24T05:56:18.767Z,63.92
2018-06-24T05:57:53.917Z,62.66
2018-06-24T05:59:28.622Z,61.95
2018-06-24T06:01:03.742Z,62.64
2018-06-24T06:02:38.403Z,63.74
2018-06-24T06:04:13.101Z,64.32
2018-06-24T06:05:47.785Z,65.15
2018-06-24T06:07:24.121Z,63.60
2018-06-24T06:08:59.498Z,63.42
2018-06-24T06:10:34.652Z,62.35
2018-06-24T06:12:11.049Z,59.37
2018-06-24T06:13:46.283Z,61.61
2018-06-24T06:15:21.028Z,61.92
2018-06-24T06:16:55.944Z,60.95
2018-06-24T06:18:30.674Z,61.34
2018-06-24T06:20:05.615Z,60.89
2018-06-24T06:21:43.549Z,59.95
2018-06-24T06:23:18.339Z,61.49
2018-06-24T06:24:53.395Z,61.28
2018-06-24T06:26:28.755Z,60.17
2018-06-24T06:28:04.768Z,60.85
2018-06-24T06:29:39.507Z,60.27
2018-06-24T06:31:14.230Z,61.74
2018-06-24T06:32:49.956Z,61.36
2018-06-24T06:34:25.220Z,61.52
2018-06-24T06:35:59.986Z,63.06
2018-06-24T06:37:35.134Z,62.65
2018-06-24T06:39:11.045Z,64.31
2018-06-24T06:40:45.666Z,63.68
2018-06-24T06:42:23.218Z,63.37
2018-06-24T06:43:57.910Z,65.40
2018-06-24T06:45:32.849Z,66.38
2018-06-24T06:47:08.016Z,65.69
2018-06-24T06:48:42.670Z,64.93
2018-06-24T06:50:18.962Z,65.29
2018-06-24T06:51:53.658Z,65.71
2018-06-24T06:53:30.003Z,65.93
2018-06-24T06:55:05.030Z,66.70
2018-06-24T06:56:39.799Z,65.14
2018-06-24T06:58:14.440Z,66.23
2018-06-24T06:59:49.946Z,64.76
2018-06-24T07:01:25.340Z,66.19
2018-06-24T07:03:00.524Z,65.27
2018-06-24T07:04:35.465Z,65.19
2018-06-24T07:06:10.374Z,66.28
2018-06-24T07:07:47.854Z,65.17
2018-06-24T07:09:22.563Z,65.92
2018-06-24T07:10:57.581Z,66.34
2018-06-24T07:12:32.371Z,66.75
2018-06-24T07:14:08.550Z,67.04
2018-06-24T07:15:43.524Z,65.36
2018-06-24T07:17:19.005Z,67.32
2018-06-24T07:18:55.483Z,65.54
2018-06-24T07:20:30.405Z,64.69
2018-06-24T07:22:05.814Z,66.83
2018-06-24T07:23:40.610Z,65.67
2018-06-24T07:25:17.345Z,66.17
2018-06-24T07:26:53.163Z,65.25
2018-06-24T07:28:27.823Z,66.31
2018-06-24T07:30:05.325Z,64.47
2018-06-24T07:31:40.713Z,64.72
2018-06-24T07:33:21.870Z,64.67
2018-06-24T07:34:56.733Z,64.99
2018-06-24T07:36:35.953Z,65.94
2018-06-24T07:38:15.144Z,63.98
2018-06-24T07:39:53.375Z,64.52
2018-06-24T07:41:32.331Z,65.44
2018-06-24T07:44:50.399Z,64.31
2018-06-24T07:46:26.113Z,66.89
2018-06-24T07:48:03.530Z,65.13
2018-06-24T07:49:39.955Z,65.28
2018-06-24T07:51:16.905Z,65.46
2018-06-24T07:52:55.716Z,64.66
2018-06-24T07:54:32.116Z,64.46
2018-06-24T07:56:07.545Z,64.43
2018-06-24T07:57:43.261Z,64.88
2018-06-24T07:59:18.731Z,64.78
2018-06-24T08:00:54.276Z,64.83
2018-06-24T08:02:29.670Z,64.57
2018-06-24T08:04:04.521Z,64.53
2018-06-24T08:05:40.968Z,63.46
2018-06-24T08:07:17.467Z,64.06
2018-06-24T08:08:53.756Z,65.42
2018-06-24T08:10:30.431Z,64.08
2018-06-24T08:12:07.434Z,65.28
2018-06-24T08:13:43.396Z,64.77
2018-06-24T08:15:20.409Z,64.56
2018-06-24T08:16:57.659Z,65.00
2018-06-24T08:18:33.424Z,64.26
2018-06-24T08:20:08.736Z,65.12
2018-06-24T08:21:45.961Z,65.57
2018-06-24T08:23:21.416Z,64.81
2018-06-24T08:24:57.618Z,65.77
2018-06-24T08:26:33.799Z,64.10
2018-06-24T08:28:09.488Z,64.43
2018-06-24T08:29:44.371Z,64.28
2018-06-24T08:31:19.223Z,63.77
2018-06-24T08:32:54.732Z,64.87
2018-06-24T08:34:30.787Z,65.18
2018-06-24T08:36:05.813Z,63.90
2018-06-24T08:37:40.861Z,63.14
2018-06-24T08:39:15.633Z,62.33
2018-06-24T08:40:50.458Z,64.18
2018-06-24T08:42:27.382Z,63.87
2018-06-24T08:44:09.640Z,62.62
2018-06-24T08:45:44.727Z,63.90
2018-06-24T08:49:04.566Z,62.96
2018-06-24T08:50:42.078Z,63.11
2018-06-24T08:52:21.532Z,62.16
2018-06-24T08:53:56.716Z,62.38
2018-06-24T08:55:31.550Z,63.47
2018-06-24T08:57:06.543Z,63.14
2018-06-24T08:58:43.489Z,62.75
2018-06-24T09:00:19.503Z,62.92
2018-06-24T09:01:55.601Z,63.50
2018-06-24T09:03:38.469Z,63.97
2018-06-24T09:05:13.609Z,64.87
2018-06-24T09:06:48.797Z,63.46
2018-06-24T09:08:23.676Z,63.97
2018-06-24T09:10:03.657Z,63.37
2018-06-24T09:11:40.242Z,64.56
2018-06-24T09:13:18.329Z,64.69
2018-06-24T09:14:55.721Z,65.05
2018-06-24T09:16:30.789Z,63.41
2018-06-24T09:18:09.264Z,63.44
2018-06-24T09:19:45.555Z,64.31
2018-06-24T09:21:23.765Z,65.34
2018-06-24T09:22:59.499Z,64.67
2018-06-24T09:26:19.218Z,67.06
2018-06-24T09:27:57.472Z,65.59
2018-06-24T09:29:34.341Z,67.55
2018-06-24T09:31:17.379Z,66.59
2018-06-24T09:32:56.867Z,65.42
2018-06-24T09:34:35.313Z,66.79
2018-06-24T09:36:16.356Z,65.62
2018-06-24T09:37:54.062Z,64.97
2018-06-24T09:39:47.948Z,63.44
2018-06-24T09:41:23.530Z,64.34
2018-06-24T09:43:00.221Z,63.34
2018-06-24T09:44:39.109Z,63.82
2018-06-24T09:46:17.067Z,63.40
2018-06-24T09:47:53.946Z,63.05
2018-06-24T09:49:28.769Z,60.04
2018-06-24T09:51:07.771Z,59.26
2018-06-24T09:52:46.763Z,57.69
2018-06-24T09:54:22.642Z,58.22
2018-06-24T09:56:01.014Z,57.96
2018-06-24T09:57:39.025Z,56.70
2018-06-24T09:59:14.324Z,58.05
2018-06-24T10:00:49.384Z,56.94
2018-06-24T10:02:25.735Z,56.75
2018-06-24T10:04:00.649Z,58.54
2018-06-24T10:05:36.219Z,59.18
2018-06-24T10:07:11.601Z,58.37
2018-06-24T10:08:46.758Z,59.39
2018-06-24T10:10:22.235Z,57.19
2018-06-24T10:11:59.153Z,59.11
2018-06-24T10:13:35.576Z,59.93
2018-06-24T10:15:13.830Z,58.72
2018-06-24T10:16:57.351Z,59.56
2018-06-24T10:18:36.365Z,58.63
2018-06-24T10:20:16.492Z,58.19
2018-06-24T10:22:03.802Z,57.88
2018-06-24T10:23:42.084Z,58.51
2018-06-24T10:25:19.578Z,59.16
2018-06-24T10:27:00.509Z,60.51
2018-06-24T10:28:39.966Z,59.48
2018-06-24T10:30:19.995Z,59.87
2018-06-24T10:31:59.345Z,58.83
2018-06-24T10:33:41.187Z,59.66
2018-06-24T10:35:16.848Z,59.21
2018-06-24T10:36:52.621Z,58.99
2018-06-24T10:38:28.301Z,57.94
2018-06-24T10:40:04.458Z,58.30
2018-06-24T10:41:39.318Z,58.52
2018-06-24T10:43:17.099Z,56.84
2018-06-24T10:44:53.448Z,58.80
2018-06-24T10:46:30.390Z,58.13
2018-06-24T10:48:10.466Z,55.55
2018-06-24T10:49:49.630Z,51.92
2018-06-24T10:51:27.787Z,55.19
2018-06-24T10:53:10.550Z,54.03
2018-06-24T10:54:47.965Z,54.80
2018-06-24T10:56:26.844Z,55.74
2018-06-24T10:59:46.075Z,55.61
2018-06-24T11:01:27.775Z,55.48
2018-06-24T11:05:02.533Z,55.72
2018-06-24T11:06:37.467Z,52.00
2018-06-24T11:08:13.924Z,51.98
2018-06-24T11:09:54.288Z,49.64
2018-06-24T11:11:30.935Z,50.12
2018-06-24T11:13:08.742Z,51.61
2018-06-24T11:14:45.873Z,49.87
2018-06-24T11:16:22.061Z,52.31
2018-06-24T11:18:03.128Z,50.41
2018-06-24T11:19:40.440Z,50.69
2018-06-24T11:21:23.376Z,49.38
2018-06-24T11:23:00.049Z,50.61
2018-06-24T11:24:37.453Z,51.96
2018-06-24T11:26:14.483Z,48.50
2018-06-24T11:27:51.531Z,49.55
2018-06-24T11:29:28.691Z,48.54
2018-06-24T11:31:04.897Z,50.28
2018-06-24T11:32:40.031Z,48.82
2018-06-24T11:34:16.308Z,48.11
2018-06-24T11:35:52.229Z,47.89
2018-06-24T11:37:27.238Z,49.83
2018-06-24T11:39:04.478Z,47.76
2018-06-24T11:40:40.472Z,45.71
2018-06-24T11:42:15.599Z,47.89
2018-06-24T11:43:53.773Z,47.43
2018-06-24T11:45:29.813Z,45.37
2018-06-24T11:47:04.855Z,46.18
2018-06-24T11:48:40.724Z,45.54
2018-06-24T11:50:15.781Z,46.08
2018-06-24T11:51:51.739Z,46.79
2018-06-24T11:53:27.600Z,46.84
2018-06-24T11:55:04.544Z,49.27
2018-06-24T11:56:40.593Z,49.04
2018-06-24T11:58:16.316Z,49.67
2018-06-24T12:01:25.973Z,49.69
2018-06-24T12:03:02.590Z,50.73
2018-06-24T12:04:37.544Z,49.38
2018-06-24T12:06:15.500Z,49.68
2018-06-24T12:07:55.593Z,48.25
2018-06-24T12:09:31.901Z,50.75
2018-06-24T12:11:10.681Z,49.44
2018-06-24T12:12:50.691Z,48.74
2018-06-24T12:14:27.265Z,48.08
2018-06-24T12:16:02.696Z,48.45
2018-06-24T12:17:39.323Z,49.49
2018-06-24T12:19:15.852Z,48.61
2018-06-24T12:20:53.654Z,48.34
2018-06-24T12:22:28.444Z,49.00
2018-06-24T12:24:05.701Z,50.85
2018-06-24T12:25:41.187Z,50.29
2018-06-24T12:27:18.959Z,49.61
2018-06-24T12:28:55.022Z,51.68
2018-06-24T12:30:32.255Z,51.10
2018-06-24T12:32:10.259Z,51.27
2018-06-24T12:33:47.612Z,52.24
2018-06-24T12:35:24.266Z,52.21
2018-06-24T12:37:00.040Z,51.93
2018-06-24T12:38:37.299Z,51.81
2018-06-24T12:40:14.345Z,53.13
2018-06-24T12:41:54.301Z,53.05
2018-06-24T12:43:30.254Z,54.51
2018-06-24T12:45:11.318Z,53.11
2018-06-24T12:46:55.445Z,53.54
2018-06-24T12:48:35.642Z,53.48
2018-06-24T12:50:20.256Z,54.35
2018-06-24T12:51:57.585Z,52.95
2018-06-24T12:53:33.605Z,55.69
2018-06-24T12:55:22.344Z,53.45
2018-06-24T12:57:02.373Z,55.05
2018-06-24T12:58:45.682Z,53.30
2018-06-24T13:00:22.936Z,53.54
2018-06-24T13:02:19.889Z,53.98
2018-06-24T13:04:05.466Z,53.05
2018-06-24T13:05:46.089Z,51.49
2018-06-24T13:07:24.732Z,51.42
2018-06-24T13:09:06.532Z,50.76
2018-06-24T13:10:42.211Z,51.40
2018-06-24T13:12:19.687Z,49.85
2018-06-24T13:13:57.097Z,48.95
2018-06-24T13:15:34.611Z,50.33
2018-06-24T13:17:12.356Z,50.19
2018-06-24T13:18:52.279Z,49.73
2018-06-24T13:20:30.028Z,49.21
2018-06-24T13:22:10.335Z,50.86
2018-06-24T13:23:47.444Z,50.55
2018-06-24T13:25:34.135Z,50.95
2018-06-24T13:27:13.843Z,49.08
2018-06-24T13:28:51.029Z,50.65
2018-06-24T13:30:27.965Z,50.95
2018-06-24T13:32:04.853Z,51.27
2018-06-24T13:33:44.746Z,51.77
2018-06-24T13:35:21.587Z,51.59
2018-06-24T13:36:58.113Z,52.14
2018-06-24T13:38:36.073Z,52.95
2018-06-24T13:40:14.843Z,53.93
2018-06-24T13:41:53.617Z,54.87
2018-06-24T13:43:30.624Z,55.24
2018-06-24T13:45:18.782Z,53.13
2018-06-24T13:46:55.478Z,54.71
2018-06-24T13:48:32.803Z,55.08
2018-06-24T13:50:14.388Z,54.33
2018-06-24T13:51:54.151Z,54.30
2018-06-24T13:53:32.533Z,53.84
2018-06-24T13:55:14.792Z,54.17
2018-06-24T13:56:52.092Z,55.35
2018-06-24T13:58:33.612Z,54.91
2018-06-24T14:00:15.605Z,53.93
2018-06-24T14:01:51.783Z,54.45
2018-06-24T14:03:30.414Z,54.99
2018-06-24T14:05:10.741Z,54.44
2018-06-24T14:06:56.926Z,55.65
2018-06-24T14:08:34.496Z,54.81
2018-06-24T14:15:20.249Z,56.08
2018-06-24T14:17:00.474Z,56.86
2018-06-24T14:18:40.597Z,58.17
2018-06-24T14:20:18.376Z,58.26
2018-06-24T14:22:00.060Z,57.65
2018-06-24T14:23:36.324Z,56.87
2018-06-24T14:25:20.330Z,57.68
2018-06-24T14:27:01.643Z,57.27
2018-06-24T14:28:40.626Z,56.49
2018-06-24T14:30:24.033Z,56.59
2018-06-24T14:31:59.616Z,56.37
2018-06-24T14:33:36.612Z,56.39
2018-06-24T14:35:16.052Z,57.21
2018-06-24T14:36:52.597Z,57.50
2018-06-24T14:38:29.356Z,56.84
2018-06-24T14:40:06.073Z,57.65
2018-06-24T14:41:42.121Z,59.02
2018-06-24T14:43:31.716Z,58.50
2018-06-24T14:45:12.697Z,58.57
2018-06-24T14:46:54.084Z,58.06
2018-06-24T14:48:31.835Z,58.05
2018-06-24T14:50:10.012Z,59.42
2018-06-24T14:51:45.656Z,58.82
2018-06-24T14:53:25.185Z,58.69
2018-06-24T14:55:06.441Z,58.87
2018-06-24T14:56:45.080Z,59.61
2018-06-24T14:58:24.661Z,59.89
2018-06-24T15:00:06.242Z,60.38
2018-06-24T15:01:46.833Z,60.52
2018-06-24T15:03:27.042Z,60.87
2018-06-24T15:05:06.779Z,59.93
2018-06-24T15:06:53.990Z,59.90
2018-06-24T15:08:30.561Z,61.09
2018-06-24T15:10:06.454Z,60.80
2018-06-24T15:11:44.157Z,60.63
2018-06-24T15:13:24.207Z,60.65
2018-06-24T15:15:00.980Z,61.01
2018-06-24T15:16:40.437Z,61.02
2018-06-24T15:18:17.442Z,62.03
2018-06-24T15:19:58.540Z,61.77
2018-06-24T15:21:35.347Z,63.03
2018-06-24T15:23:11.301Z,62.66
2018-06-24T15:24:47.554Z,64.04
2018-06-24T15:26:28.044Z,63.25
2018-06-24T15:28:07.543Z,63.21
2018-06-24T15:29:44.193Z,63.83
2018-06-24T15:31:20.098Z,63.91
2018-06-24T15:32:58.638Z,64.53
2018-06-24T15:34:46.496Z,64.31
2018-06-24T15:36:25.362Z,64.67
2018-06-24T15:38:10.447Z,65.87
2018-06-24T15:39:49.040Z,65.41
2018-06-24T15:41:26.285Z,65.63
2018-06-24T15:43:01.906Z,66.77
2018-06-24T15:44:40.402Z,66.42
2018-06-24T15:46:19.117Z,66.32
2018-06-24T15:48:00.678Z,66.51
2018-06-24T15:49:38.429Z,67.04
2018-06-24T15:53:11.502Z,66.99
2018-06-24T15:54:50.694Z,66.94
2018-06-24T15:56:34.517Z,67.01
2018-06-24T15:58:15.401Z,66.98
2018-06-24T15:59:56.794Z,67.07
2018-06-24T16:01:52.490Z,67.25
2018-06-24T16:03:33.297Z,66.67
2018-06-24T16:07:02.729Z,68.05
2018-06-24T16:08:47.205Z,67.99
2018-06-24T16:10:25.090Z,69.07
2018-06-24T16:13:44.064Z,68.09
2018-06-24T16:15:24.945Z,68.83
2018-06-24T16:17:04.741Z,68.80
2018-06-24T16:18:45.511Z,69.37
2018-06-24T16:20:28.718Z,69.12
2018-06-24T16:22:14.733Z,68.35
2018-06-24T16:24:04.456Z,69.05
2018-06-24T16:25:45.353Z,69.05
2018-06-24T16:27:25.296Z,69.37
2018-06-24T16:29:04.325Z,69.80
2018-06-24T16:30:51.920Z,69.50
2018-06-24T16:32:36.524Z,69.17
2018-06-24T16:34:22.374Z,69.37
2018-06-24T16:36:07.507Z,70.25
2018-06-24T16:37:49.307Z,70.25
2018-06-24T16:39:27.299Z,70.10
2018-06-24T16:41:07.693Z,70.67
2018-06-24T16:42:45.617Z,70.41
2018-06-24T16:44:23.426Z,71.27
2018-06-24T16:46:10.792Z,71.65
2018-06-24T16:47:54.026Z,71.25
2018-06-24T16:49:35.913Z,71.56
2018-06-24T16:51:15.031Z,72.66
2018-06-24T16:52:56.672Z,72.78
2018-06-24T16:54:40.487Z,73.69
2018-06-24T16:56:17.113Z,73.69
2018-06-24T16:57:53.741Z,74.19
2018-06-24T16:59:30.206Z,74.46
2018-06-24T17:01:12.229Z,74.70
2018-06-24T17:02:53.608Z,74.53
2018-06-24T17:04:35.004Z,74.81
2018-06-24T17:06:13.213Z,75.03
2018-06-24T17:07:49.433Z,74.78
2018-06-24T17:09:25.554Z,75.09
2018-06-24T17:11:02.736Z,74.37
2018-06-24T17:12:39.221Z,75.56
2018-06-24T17:14:16.122Z,75.31
2018-06-24T17:15:54.025Z,75.96
2018-06-24T17:17:33.584Z,75.27
2018-06-24T17:19:13.721Z,75.85
2018-06-24T17:20:52.359Z,76.05
2018-06-24T17:22:32.085Z,75.80
2018-06-24T17:24:16.111Z,76.43
2018-06-24T17:25:57.878Z,76.83
2018-06-24T17:27:35.710Z,77.42
2018-06-24T17:29:13.090Z,77.41
2018-06-24T17:30:48.563Z,77.86
2018-06-24T17:32:26.513Z,77.81
2018-06-24T17:34:10.705Z,78.52
2018-06-24T17:35:47.473Z,78.57
2018-06-24T17:37:25.277Z,78.48
2018-06-24T17:39:02.864Z,79.25
2018-06-24T17:40:43.897Z,79.28
2018-06-24T17:42:25.565Z,80.19
2018-06-24T17:44:08.576Z,79.51
2018-06-24T17:45:49.421Z,80.18
2018-06-24T17:47:28.047Z,80.40
2018-06-24T17:49:06.037Z,80.23
2018-06-24T17:50:46.810Z,80.76
2018-06-24T17:52:26.552Z,81.09
2018-06-24T17:54:06.401Z,81.41
2018-06-24T17:55:45.053Z,81.08
2018-06-24T17:57:22.792Z,81.55
2018-06-24T17:59:04.122Z,81.90
2018-06-24T18:00:41.086Z,82.11
2018-06-24T18:02:21.262Z,81.84
2018-06-24T18:04:00.989Z,82.96
2018-06-24T18:05:39.312Z,82.92
2018-06-24T18:07:17.046Z,83.33
2018-06-24T18:08:54.633Z,83.49
2018-06-24T18:10:32.290Z,83.65
2018-06-24T18:12:11.227Z,83.30
2018-06-24T18:13:50.979Z,83.89
2018-06-24T18:15:34.526Z,84.06
2018-06-24T18:17:15.761Z,84.25
2018-06-24T18:18:56.122Z,84.84
2018-06-24T18:20:34.703Z,84.55
2018-06-24T18:22:12.499Z,84.47
2018-06-24T18:23:48.401Z,84.80
2018-06-24T18:25:26.648Z,84.67
2018-06-24T18:27:16.192Z,84.85
2018-06-24T18:28:51.828Z,85.06
2018-06-24T18:30:30.687Z,85.07
2018-06-24T18:32:07.103Z,85.57
2018-06-24T18:33:44.004Z,85.44
2018-06-24T18:35:22.367Z,85.10
2018-06-24T18:36:58.430Z,85.68
2018-06-24T18:38:37.314Z,85.96
2018-06-24T18:40:17.271Z,85.77
2018-06-24T18:41:58.261Z,85.53
2018-06-24T18:43:36.574Z,85.83
2018-06-24T18:45:29.446Z,85.68
2018-06-24T18:47:08.234Z,86.17
2018-06-24T18:48:48.913Z,86.05
2018-06-24T18:50:32.307Z,86.24
2018-06-24T18:54:01.404Z,86.23
2018-06-24T18:55:43.474Z,86.41
2018-06-24T18:57:24.862Z,86.33
2018-06-24T18:59:21.332Z,86.50
2018-06-24T19:01:01.880Z,86.66
2018-06-24T19:02:41.457Z,85.56
2018-06-24T19:04:22.021Z,85.77
2018-06-24T19:06:05.092Z,85.51
2018-06-24T19:09:38.107Z,87.17
2018-06-24T19:11:18.344Z,86.27
2018-06-24T19:13:03.073Z,85.59
2018-06-24T19:14:39.657Z,86.00
2018-06-24T19:16:20.237Z,86.38
2018-06-24T19:17:56.513Z,86.25
2018-06-24T19:19:35.421Z,86.40
2018-06-24T19:21:12.771Z,86.44
2018-06-24T19:22:50.380Z,86.61
2018-06-24T19:24:28.240Z,86.93
2018-06-24T19:26:06.154Z,86.46
2018-06-24T19:27:42.511Z,86.93
2018-06-24T19:29:18.318Z,86.23
2018-06-24T19:31:00.047Z,86.74
2018-06-24T19:32:43.282Z,87.02
2018-06-24T19:34:21.230Z,86.67
2018-06-24T19:36:02.942Z,86.44
2018-06-24T19:37:39.965Z,87.02
2018-06-24T19:39:16.864Z,87.15
2018-06-24T19:40:54.502Z,87.43
2018-06-24T19:42:32.616Z,87.27
2018-06-24T19:44:09.810Z,87.68
2018-06-24T19:45:50.434Z,86.83
2018-06-24T19:47:27.482Z,87.37
2018-06-24T19:49:10.683Z,87.20
2018-06-24T19:51:00.131Z,87.17
2018-06-24T19:52:38.925Z,87.60
2018-06-24T19:54:19.631Z,87.40
2018-06-24T19:55:57.441Z,87.57
2018-06-24T19:57:35.181Z,87.40
2018-06-24T19:59:12.438Z,87.81
2018-06-24T20:02:40.529Z,87.32
2018-06-24T20:04:23.804Z,87.52
2018-06-24T20:06:05.025Z,87.26
2018-06-24T20:07:41.997Z,87.53
2018-06-24T20:09:20.578Z,87.50
2018-06-24T20:11:00.883Z,87.20
2018-06-24T20:12:37.414Z,87.92
2018-06-24T20:14:14.492Z,87.40
2018-06-24T20:15:50.744Z,87.49
2018-06-24T20:17:32.530Z,87.40
2018-06-24T20:19:09.529Z,87.77
2018-06-24T20:20:46.567Z,87.72
2018-06-24T20:22:22.114Z,87.56
2018-06-24T20:23:59.921Z,87.81
2018-06-24T20:25:41.767Z,87.47
2018-06-24T20:27:17.937Z,87.55
2018-06-24T20:28:54.013Z,87.24
2018-06-24T20:30:37.699Z,87.73
2018-06-24T20:32:14.547Z,87.80
2018-06-24T20:33:54.747Z,87.47
2018-06-24T20:35:31.508Z,88.23
2018-06-24T20:37:14.851Z,87.76
2018-06-24T20:38:50.606Z,87.50
2018-06-24T20:40:29.744Z,87.49
2018-06-24T20:42:07.196Z,87.96
2018-06-24T20:44:00.128Z,87.91
2018-06-24T20:45:41.134Z,88.21
2018-06-24T20:47:19.534Z,87.86
2018-06-24T20:49:00.829Z,87.81
2018-06-24T20:50:38.620Z,88.14
2018-06-24T20:52:17.354Z,87.65
2018-06-24T20:53:52.404Z,87.95
2018-06-24T20:55:29.092Z,88.06
2018-06-24T20:57:06.477Z,88.11
2018-06-24T20:58:43.807Z,88.19
2018-06-24T21:00:21.961Z,87.77
2018-06-24T21:01:58.229Z,88.00
2018-06-24T21:03:34.125Z,87.97
2018-06-24T21:05:17.714Z,87.90
2018-06-24T21:06:55.542Z,87.83
2018-06-24T21:08:35.403Z,87.45
2018-06-24T21:10:15.291Z,87.79
2018-06-24T21:11:54.446Z,87.54
2018-06-24T21:13:33.227Z,88.26
2018-06-24T21:15:15.542Z,88.48
2018-06-24T21:16:54.390Z,88.19
2018-06-24T21:18:40.695Z,88.33
2018-06-24T21:20:19.740Z,88.56
2018-06-24T21:22:01.677Z,88.10
2018-06-24T21:23:45.378Z,88.26